Terminal Aerodrome Forecast
Issued by NWS Missoula, MT

Home | Current Version | Previous Version | Text Only | Print | Product List | Glossary On
Versions: 1 2 3 4 5 6 7 8 9 10 11 12 13 14 15 16 17 18 19 20 21
000
FTUS45 KMSO 272338
TAFMSO
TAF
KMSO 272338Z 2800/2824 33008KT P6SM VCSH BKN040
     FM280500 VRB03KT P6SM SCT100
     FM281200 VRB03KT 4SM BR VCFG SCT010
     FM281500 VRB03KT P6SM SCT100
     FM282100 33007KT P6SM SCT120=

USA.gov is the U.S. government's official web portal to all federal, state and local government web resources and services.